Time;durP1;ratioP1;P1;durP2;ratioP2;P2;SDS_P1;SDS_P2;PMS_P1;PMS_P2;Temp;Humidity;BMP_temperature;BMP_pressure;BME280_temperature;BME280_humidity;BME280_pressure;Samples;Min_cycle;Max_cycle;Signal;HPM_P1;HPM_P2
2023/12/11 05:46:13;;;;;;;33.03;5.38;;;;;;;9.24;100.00;99294.19;5767632;24;20394;-77
2023/12/11 05:48:39;;;;;;;27.38;6.05;;;;;;;9.23;100.00;99303.75;4808378;29;20035;-76
2023/12/11 05:51:04;;;;;;;20.85;4.63;;;;;;;9.24;100.00;99305.34;4814501;29;20591;-74
2023/12/11 05:53:30;;;;;;;41.42;5.15;;;;;;;9.20;100.00;99293.41;4818891;29;20113;-74
2023/12/11 05:55:55;;;;;;;19.65;4.38;;;;;;;9.18;100.00;99298.59;4816203;29;20054;-77
2023/12/11 05:58:21;;;;;;;23.73;4.45;;;;;;;9.18;100.00;99295.81;4814333;29;20038;-76
2023/12/11 06:00:46;;;;;;;33.05;4.80;;;;;;;9.18;100.00;99296.59;4815128;29;20030;-76
2023/12/11 06:03:11;;;;;;;28.70;4.47;;;;;;;9.17;100.00;99295.00;4815807;29;23027;-76
2023/12/11 06:05:37;;;;;;;24.13;5.13;;;;;;;9.12;100.00;99293.41;4815800;29;20038;-76
2023/12/11 06:08:03;;;;;;;21.33;4.72;;;;;;;9.05;100.00;99285.09;4816763;29;20045;-76
2023/12/11 06:10:29;;;;;;;18.42;4.05;;;;;;;9.09;100.00;99282.28;4815735;29;20526;-76
2023/12/11 06:12:55;;;;;;;23.90;5.10;;;;;;;9.08;100.00;99289.84;4812977;29;20516;-76
2023/12/11 06:15:20;;;;;;;19.98;4.13;;;;;;;9.08;100.00;99291.84;4815713;29;20125;-76
2023/12/11 06:17:45;;;;;;;27.13;5.10;;;;;;;9.12;100.00;99293.41;4815717;29;20086;-76
2023/12/11 06:20:11;;;;;;;20.77;4.60;;;;;;;9.14;100.00;99284.66;4812148;29;20026;-76
2023/12/11 06:22:36;;;;;;;27.98;4.50;;;;;;;9.12;100.00;99287.84;4817885;29;20099;-76
2023/12/11 06:25:02;;;;;;;19.33;3.95;;;;;;;9.14;100.00;99284.66;4819540;29;20117;-76
2023/12/11 06:27:28;;;;;;;22.35;4.57;;;;;;;9.18;100.00;99290.22;4814895;29;20046;-76
2023/12/11 06:29:53;;;;;;;17.02;4.18;;;;;;;9.24;100.00;99294.19;4813932;29;20084;-76
2023/12/11 06:32:19;;;;;;;27.10;4.18;;;;;;;9.15;100.00;99295.41;4809450;29;20134;-76
2023/12/11 06:34:44;;;;;;;27.48;4.00;;;;;;;9.12;100.00;99299.00;4817404;29;20035;-76
2023/12/11 06:37:10;;;;;;;20.38;4.75;;;;;;;9.12;100.00;99279.47;4814878;29;20030;-77
2023/12/11 06:39:36;;;;;;;14.38;3.22;;;;;;;9.12;100.00;99289.84;4812184;29;20395;-76
2023/12/11 06:42:02;;;;;;;22.88;4.82;;;;;;;9.11;100.00;99286.25;4811838;29;20042;-76
2023/12/11 06:44:27;;;;;;;20.13;4.53;;;;;;;9.11;100.00;99275.09;4813938;29;20038;-76
2023/12/11 06:46:52;;;;;;;25.63;5.07;;;;;;;9.05;100.00;99276.72;4811789;29;20042;-76
2023/12/11 06:49:18;;;;;;;29.35;4.75;;;;;;;9.04;100.00;99266.75;4793390;29;20039;-76
2023/12/11 06:51:43;;;;;;;12.82;3.40;;;;;;;9.08;100.00;99264.72;4795126;29;20510;-75
2023/12/11 06:54:11;;;;;;;18.35;4.18;;;;;;;9.24;100.00;99260.69;4797620;29;20038;-75
2023/12/11 06:56:37;;;;;;;19.73;3.85;;;;;;;9.31;100.00;99261.41;4803914;29;20042;-77
2023/12/11 06:59:02;;;;;;;19.02;3.45;;;;;;;9.09;100.00;99259.97;4796288;29;20035;-76
2023/12/11 07:01:33;;;;;;;16.67;5.63;;;;;;;9.03;100.00;99262.38;4794566;29;20068;-77
2023/12/11 07:03:59;;;;;;;14.90;4.18;;;;;;;9.06;100.00;99257.97;4796381;29;20050;-76
2023/12/11 07:06:24;;;;;;;18.30;3.45;;;;;;;8.99;100.00;99260.81;4796075;29;20039;-77
2023/12/11 07:08:50;;;;;;;22.40;4.68;;;;;;;8.99;100.00;99267.19;4797255;29;20054;-77
2023/12/11 07:11:15;;;;;;;18.77;3.33;;;;;;;8.93;100.00;99254.84;4795364;29;20122;-76
2023/12/11 07:13:44;;;;;;;15.00;3.20;;;;;;;8.98;100.00;99251.66;4794964;29;20034;-77
2023/12/11 07:16:10;;;;;;;18.42;3.20;;;;;;;8.99;100.00;99256.03;4793283;29;20611;-76
2023/12/11 07:18:36;;;;;;;16.83;3.42;;;;;;;9.02;100.00;99241.25;4794088;29;20046;-76
2023/12/11 07:21:06;;;;;;;13.52;3.80;;;;;;;9.00;100.00;99243.63;4794603;29;20043;-76
2023/12/11 07:23:31;;;;;;;12.50;3.03;;;;;;;8.95;100.00;99238.50;4797195;29;20035;-76
2023/12/11 07:25:57;;;;;;;11.73;2.92;;;;;;;8.92;100.00;99244.91;4797004;29;20521;-76
2023/12/11 07:28:22;;;;;;;12.50;3.35;;;;;;;8.91;100.00;99248.88;4795961;29;20043;-76
2023/12/11 07:30:47;;;;;;;10.85;2.90;;;;;;;8.94;100.00;99248.09;4796044;29;20071;-76
2023/12/11 07:33:13;;;;;;;15.55;3.25;;;;;;;8.89;100.00;99245.72;4798060;29;20181;-76
2023/12/11 07:35:38;;;;;;;12.95;3.17;;;;;;;8.88;100.00;99242.13;4790143;29;20034;-76
2023/12/11 07:38:03;;;;;;;6.97;1.92;;;;;;;8.86;100.00;99241.75;4792064;29;20090;-76
2023/12/11 07:40:29;;;;;;;19.45;2.92;;;;;;;8.85;100.00;99242.13;4798933;29;20038;-76
2023/12/11 07:42:54;;;;;;;16.25;3.13;;;;;;;8.85;100.00;99237.34;4793296;29;20114;-76
2023/12/11 07:45:22;;;;;;;11.80;2.85;;;;;;;8.85;100.00;99236.56;4791879;29;20487;-76
2023/12/11 07:48:01;;;;;;;11.75;4.13;;;;;;;8.81;100.00;99235.78;5063611;27;20955;-77
2023/12/11 07:50:27;;;;;;;10.88;3.15;;;;;;;8.84;100.00;99232.97;5047292;28;20033;-77
2023/12/11 07:52:52;;;;;;;9.77;3.10;;;;;;;8.84;100.00;99227.41;5058135;28;20033;-77
2023/12/11 07:55:17;;;;;;;10.55;2.25;;;;;;;8.81;100.00;99222.63;5053867;28;20029;-77
2023/12/11 07:57:43;;;;;;;8.18;2.45;;;;;;;8.84;100.00;99229.41;5058283;28;20031;-77
2023/12/11 08:00:09;;;;;;;6.53;1.90;;;;;;;8.83;100.00;99230.59;5057646;28;20029;-76
2023/12/11 08:02:35;;;;;;;9.32;1.98;;;;;;;8.79;100.00;99229.81;5056801;28;20025;-77
2023/12/11 08:05:01;;;;;;;6.75;2.25;;;;;;;8.77;100.00;99233.03;5050424;28;20038;-77
2023/12/11 08:07:26;;;;;;;8.15;3.20;;;;;;;8.75;100.00;99246.59;5060882;28;20039;-77
2023/12/11 08:09:52;;;;;;;7.30;2.22;;;;;;;8.70;100.00;99239.41;5053439;28;20102;-76
2023/12/11 08:12:17;;;;;;;7.60;1.88;;;;;;;8.77;100.00;99240.56;5052242;28;20549;-76
2023/12/11 08:14:42;;;;;;;11.40;2.17;;;;;;;8.75;100.00;99241.78;5051446;28;20037;-76
2023/12/11 08:17:08;;;;;;;6.10;2.00;;;;;;;8.70;100.00;99239.41;5059544;28;20029;-76
2023/12/11 08:19:33;;;;;;;13.52;2.33;;;;;;;8.71;100.00;99241.00;5059708;28;20076;-76
2023/12/11 08:21:59;;;;;;;10.63;2.38;;;;;;;8.75;100.00;99252.94;5056189;28;20036;-76
2023/12/11 08:24:25;;;;;;;14.30;2.30;;;;;;;8.78;100.00;99258.91;5058678;28;20477;-76
2023/12/11 08:26:50;;;;;;;10.13;3.00;;;;;;;8.73;100.00;99260.16;5053757;28;20020;-76
2023/12/11 08:29:16;;;;;;;4.05;1.92;;;;;;;8.78;100.00;99256.13;5052756;28;20028;-76
2023/12/11 08:31:41;;;;;;;10.65;2.90;;;;;;;8.82;100.00;99282.03;5061557;28;20028;-77
2023/12/11 08:34:07;;;;;;;11.30;2.40;;;;;;;8.83;100.00;99291.97;5059807;28;20029;-76
2023/12/11 08:36:32;;;;;;;11.05;2.78;;;;;;;8.84;100.00;99288.00;5058782;28;20037;-77
2023/12/11 08:38:57;;;;;;;19.48;3.05;;;;;;;8.89;100.00;99290.34;5061332;28;20174;-76
2023/12/11 08:41:23;;;;;;;8.18;2.50;;;;;;;8.87;100.00;99303.91;5061309;28;20032;-76
2023/12/11 08:43:49;;;;;;;12.57;2.60;;;;;;;8.92;100.00;99317.47;5058228;28;20022;-77
2023/12/11 08:46:14;;;;;;;9.68;2.58;;;;;;;8.90;100.00;99314.28;5052801;28;20044;-76
2023/12/11 08:48:39;;;;;;;9.43;3.10;;;;;;;8.91;100.00;99313.84;5058712;28;20028;-75
2023/12/11 08:51:05;;;;;;;18.05;2.72;;;;;;;8.89;100.00;99335.00;5052687;28;20544;-76
2023/12/11 08:53:31;;;;;;;10.07;2.85;;;;;;;8.86;100.00;99341.41;5053908;28;20036;-76
2023/12/11 08:55:56;;;;;;;9.93;2.53;;;;;;;8.91;100.00;99344.53;5060687;28;20036;-76
2023/12/11 08:58:23;;;;;;;12.82;3.05;;;;;;;8.86;100.00;99358.13;5053445;28;20502;-76
2023/12/11 09:00:49;;;;;;;16.02;2.92;;;;;;;8.90;100.00;99376.44;5047015;28;20533;-76
2023/12/11 09:03:14;;;;;;;16.42;2.80;;;;;;;8.92;100.00;99384.44;5044756;28;20029;-76
2023/12/11 09:05:40;;;;;;;13.40;2.78;;;;;;;8.94;100.00;99377.25;5043723;28;20025;-76
2023/12/11 09:08:05;;;;;;;11.27;3.08;;;;;;;8.99;100.00;99392.78;5047734;28;20388;-76
2023/12/11 09:10:31;;;;;;;10.30;2.13;;;;;;;8.98;100.00;99415.50;5043889;28;20128;-76
2023/12/11 09:12:56;;;;;;;12.23;3.20;;;;;;;8.97;100.00;99409.13;5040722;28;20392;-75
2023/12/11 09:15:22;;;;;;;15.57;2.58;;;;;;;8.93;100.00;99419.50;5039484;28;20031;-76
2023/12/11 09:17:47;;;;;;;14.77;3.22;;;;;;;8.90;100.00;99428.69;5040292;28;20052;-76
2023/12/11 09:20:13;;;;;;;11.82;2.22;;;;;;;8.86;100.00;99442.63;5041651;28;20052;-76
2023/12/11 09:22:40;;;;;;;14.20;2.92;;;;;;;8.98;100.00;99452.59;5042694;28;20025;-76
2023/12/11 09:25:06;;;;;;;13.45;3.42;;;;;;;8.93;100.00;99458.56;5043439;28;20358;-76
2023/12/11 09:27:32;;;;;;;19.30;3.33;;;;;;;8.96;100.00;99463.34;5047173;28;20036;-76
2023/12/11 09:29:57;;;;;;;16.17;2.40;;;;;;;8.99;100.00;99484.06;5038949;28;20436;-75
2023/12/11 09:32:23;;;;;;;13.00;3.50;;;;;;;8.99;100.00;99496.03;5042210;28;20033;-76
2023/12/11 09:34:48;;;;;;;9.20;1.83;;;;;;;8.95;100.00;99496.03;5041323;28;20396;-75
2023/12/11 09:37:15;;;;;;;5.93;2.55;;;;;;;8.99;100.00;99501.63;5040479;28;20033;-75
2023/12/11 09:39:41;;;;;;;11.85;2.55;;;;;;;8.95;100.00;99511.97;5045135;28;20155;-75
2023/12/11 09:42:11;;;;;;;13.45;2.30;;;;;;;8.96;100.00;99527.53;5042538;28;20713;-76
2023/12/11 09:44:37;;;;;;;4.97;1.80;;;;;;;8.95;100.00;99529.50;5040801;28;20035;-75
2023/12/11 09:47:10;;;;;;;22.55;2.75;;;;;;;8.95;100.00;99545.47;5041285;28;20033;-76
2023/12/11 09:49:36;;;;;;;12.35;2.13;;;;;;;8.96;100.00;99549.88;5045813;28;20161;-76
2023/12/11 09:52:01;;;;;;;10.45;2.80;;;;;;;8.94;100.00;99566.22;5042249;28;20595;-75
2023/12/11 09:54:27;;;;;;;18.48;2.40;;;;;;;9.01;100.00;99568.19;5045799;28;20033;-76
2023/12/11 09:56:53;;;;;;;13.27;2.72;;;;;;;8.94;100.00;99575.38;5044305;28;20029;-76
2023/12/11 09:59:19;;;;;;;8.77;1.90;;;;;;;8.97;100.00;99582.16;5043329;28;20480;-76
2023/12/11 10:01:47;;;;;;;13.32;2.40;;;;;;;9.02;100.00;99595.69;5044625;28;20534;-76
2023/12/11 10:04:13;;;;;;;12.52;2.90;;;;;;;9.02;100.00;99595.69;5045007;28;20035;-76
2023/12/11 10:06:39;;;;;;;11.50;2.63;;;;;;;8.97;100.00;99593.31;5044643;28;20033;-75
2023/12/11 10:09:05;;;;;;;14.80;2.17;;;;;;;9.01;100.00;99605.28;5046559;28;20039;-75
2023/12/11 10:11:31;;;;;;;10.23;1.98;;;;;;;8.99;100.00;99618.84;5041073;28;20029;-75
2023/12/11 10:14:11;;;;;;;11.27;2.83;;;;;;;9.00;100.00;99630.78;5043083;28;20025;-76
2023/12/11 10:16:36;;;;;;;16.98;2.50;;;;;;;8.89;100.00;99641.94;5041567;28;20025;-76
2023/12/11 10:19:02;;;;;;;6.63;1.83;;;;;;;8.89;100.00;99653.09;5043759;28;20033;-76
2023/12/11 10:21:39;;;;;;;8.45;1.52;;;;;;;8.87;100.00;99667.44;5039369;28;20029;-75
2023/12/11 10:24:13;;;;;;;6.00;1.48;;;;;;;8.88;100.00;99665.47;5042313;28;20495;-75
2023/12/11 10:26:45;;;;;;;12.43;1.73;;;;;;;8.80;100.00;99673.03;5043756;28;20520;-76
2023/12/11 10:29:17;;;;;;;5.35;1.25;;;;;;;8.80;100.00;99677.81;5042401;28;20056;-76
2023/12/11 10:31:42;;;;;;;7.38;2.22;;;;;;;8.82;100.00;99687.38;5043917;28;20431;-76
2023/12/11 10:34:07;;;;;;;10.13;1.92;;;;;;;8.80;100.00;99686.97;5043674;28;20025;-76
2023/12/11 10:36:33;;;;;;;11.15;3.38;;;;;;;8.79;100.00;99693.75;5046200;28;20032;-76
2023/12/11 10:39:08;;;;;;;7.32;1.33;;;;;;;8.82;100.00;99701.31;5045042;28;20541;-76
2023/12/11 10:41:33;;;;;;;11.27;2.67;;;;;;;8.78;100.00;99702.53;5038023;28;20459;-76
2023/12/11 10:43:59;;;;;;;18.17;4.13;;;;;;;8.85;100.00;99714.47;5041985;28;20108;-76
2023/12/11 10:46:25;;;;;;;8.15;2.90;;;;;;;8.89;100.00;99717.28;5044410;28;20594;-76
2023/12/11 10:48:51;;;;;;;6.72;1.90;;;;;;;8.90;100.00;99730.06;5042049;28;20037;-75
2023/12/11 10:51:17;;;;;;;7.72;2.60;;;;;;;8.95;100.00;99724.88;5038869;28;20032;-76
2023/12/11 10:53:44;;;;;;;10.85;2.92;;;;;;;8.97;100.00;99727.28;5037631;28;20032;-76
2023/12/11 10:56:10;;;;;;;14.95;3.50;;;;;;;8.95;100.00;99727.66;5041001;28;20059;-76
2023/12/11 10:58:35;;;;;;;17.05;3.03;;;;;;;8.98;100.00;99722.50;5040106;28;20035;-76
2023/12/11 11:01:01;;;;;;;16.33;3.70;;;;;;;9.01;100.00;99739.25;5038790;28;20036;-76
2023/12/11 11:03:29;;;;;;;8.13;2.97;;;;;;;9.05;100.00;99750.44;5044921;28;20476;-76
2023/12/11 11:05:55;;;;;;;18.55;4.80;;;;;;;9.09;100.00;99743.66;5040470;28;20035;-76
2023/12/11 11:08:31;;;;;;;21.15;3.95;;;;;;;9.09;100.00;99748.44;5045870;28;20031;-76
2023/12/11 11:11:09;;;;;;;15.85;3.63;;;;;;;9.07;100.00;99753.63;5044934;28;20064;-76
2023/12/11 11:13:48;;;;;;;17.05;2.70;;;;;;;9.03;100.00;99742.44;5038549;28;20492;-76
2023/12/11 11:16:14;;;;;;;19.63;3.25;;;;;;;9.11;100.00;99757.22;5039839;28;20040;-76
2023/12/11 11:19:04;;;;;;;18.33;2.35;;;;;;;9.20;100.00;99773.59;5045526;28;20032;-76
2023/12/11 11:21:29;;;;;;;11.20;2.75;;;;;;;9.18;100.00;99781.56;5038407;28;20291;-76
2023/12/11 11:23:55;;;;;;;16.55;2.90;;;;;;;9.22;100.00;99788.75;5041189;28;20052;-75
2023/12/11 11:26:34;;;;;;;14.20;3.20;;;;;;;9.30;100.00;99786.78;5040570;28;20140;-75
2023/12/11 11:29:03;;;;;;;12.45;2.65;;;;;;;9.30;100.00;99797.97;5041719;28;20027;-74
2023/12/11 11:31:51;;;;;;;11.88;2.63;;;;;;;9.32;100.00;99809.53;5056414;28;20041;-75
2023/12/11 11:34:41;;;;;;;14.63;3.22;;;;;;;9.29;100.00;99810.31;5033269;28;22722;-75
2023/12/11 11:37:07;;;;;;;8.65;2.20;;;;;;;9.24;100.00;99810.72;5039391;28;20032;-75
2023/12/11 11:39:56;;;;;;;10.32;3.88;;;;;;;9.27;100.00;99812.69;5039883;28;20233;-75
2023/12/11 11:42:22;;;;;;;8.40;2.00;;;;;;;9.28;100.00;99814.31;5038503;28;20025;-75
2023/12/11 11:44:47;;;;;;;12.60;2.47;;;;;;;9.12;100.00;99834.19;5039693;28;20025;-75
2023/12/11 11:47:18;;;;;;;10.63;1.65;;;;;;;9.24;100.00;99838.63;5042320;28;20048;-74
2023/12/11 11:49:44;;;;;;;9.15;2.67;;;;;;;9.22;100.00;99841.00;5037988;28;20033;-74
2023/12/11 11:52:11;;;;;;;14.75;3.13;;;;;;;9.27;100.00;99843.41;5034054;28;20044;-73
2023/12/11 11:54:37;;;;;;;11.07;3.30;;;;;;;9.24;100.00;99853.38;5038718;28;20059;-73
2023/12/11 11:57:03;;;;;;;8.55;1.70;;;;;;;9.18;100.00;99865.31;5043195;28;20495;-73
2023/12/11 11:59:29;;;;;;;5.68;1.33;;;;;;;9.08;100.00;99862.09;5042292;28;20030;-74
2023/12/11 12:01:58;;;;;;;9.90;2.33;;;;;;;9.01;100.00;99870.44;5043600;28;20035;-73
2023/12/11 12:04:31;;;;;;;5.15;1.40;;;;;;;9.04;100.00;99866.06;5036616;28;20109;-73
2023/12/11 12:06:59;;;;;;;9.80;1.75;;;;;;;9.01;100.00;99878.81;5039159;28;20134;-74
2023/12/11 12:09:31;;;;;;;7.72;1.27;;;;;;;8.96;100.00;99890.38;5038643;28;20018;-73
2023/12/11 12:12:00;;;;;;;7.85;1.50;;;;;;;8.85;100.00;99881.13;5044954;28;20543;-74
2023/12/11 12:14:26;;;;;;;3.80;1.00;;;;;;;8.90;100.00;99898.31;5033163;28;20404;-73
2023/12/11 12:16:55;;;;;;;7.70;1.35;;;;;;;8.91;100.00;99901.88;5040350;28;20029;-73
2023/12/11 12:19:33;;;;;;;4.65;1.48;;;;;;;8.86;100.00;99908.63;5035665;28;20026;-73
2023/12/11 12:22:01;;;;;;;4.60;0.80;;;;;;;8.78;100.00;99909.00;5038762;28;20108;-74
2023/12/11 12:24:27;;;;;;;2.92;1.48;;;;;;;8.68;100.00;99905.72;5040527;28;20103;-74
2023/12/11 12:27:05;;;;;;;2.15;0.77;;;;;;;8.73;100.00;99910.16;5038348;28;20492;-73
2023/12/11 12:29:34;;;;;;;3.60;0.73;;;;;;;8.72;100.00;99922.50;5040583;28;20641;-73
2023/12/11 12:32:00;;;;;;;6.22;0.95;;;;;;;8.66;100.00;99924.84;5038111;28;20033;-73
2023/12/11 12:34:27;;;;;;;4.00;0.80;;;;;;;8.68;100.00;99928.03;5043102;28;20083;-73
2023/12/11 12:36:57;;;;;;;4.15;0.82;;;;;;;8.57;100.00;99935.56;5044978;28;20435;-74
2023/12/11 12:39:22;;;;;;;4.68;0.70;;;;;;;8.63;100.00;99931.22;5038057;28;20492;-74
2023/12/11 12:41:49;;;;;;;4.35;0.93;;;;;;;8.65;100.00;99942.78;5044851;28;20029;-74
2023/12/11 12:44:14;;;;;;;1.13;0.50;;;;;;;8.66;100.00;99940.78;5046464;28;20063;-73
2023/12/11 12:46:42;;;;;;;4.07;0.60;;;;;;;8.66;100.00;99946.38;5042560;28;20044;-73
2023/12/11 12:49:11;;;;;;;4.35;0.68;;;;;;;8.66;100.00;99951.94;5044396;28;20039;-74
2023/12/11 12:51:51;;;;;;;1.85;0.60;;;;;;;8.59;100.00;99955.50;5042180;28;20063;-73
2023/12/11 12:54:17;;;;;;;4.95;0.80;;;;;;;8.79;100.00;99960.81;5040940;28;20029;-74
2023/12/11 12:56:44;;;;;;;3.88;0.60;;;;;;;8.71;100.00;99960.75;5046311;28;20504;-74
2023/12/11 12:59:10;;;;;;;3.25;0.52;;;;;;;8.75;100.00;99966.38;5047491;28;20025;-74
2023/12/11 13:01:37;;;;;;;3.65;0.65;;;;;;;8.78;100.00;99978.75;5044481;28;20041;-74
2023/12/11 13:04:04;;;;;;;3.28;0.55;;;;;;;8.68;100.00;99983.84;5048159;28;20035;-73
2023/12/11 13:06:29;;;;;;;3.83;1.35;;;;;;;8.56;100.00;99989.75;5045509;28;20039;-73
2023/12/11 13:08:55;;;;;;;3.22;0.50;;;;;;;8.60;100.00;99998.94;5051826;28;20040;-74
2023/12/11 13:11:20;;;;;;;5.30;0.98;;;;;;;8.53;100.00;99996.88;5039323;28;20029;-74
2023/12/11 13:13:54;;;;;;;3.72;0.47;;;;;;;8.59;100.00;99986.19;5038906;28;20449;-74
2023/12/11 13:16:20;;;;;;;3.00;0.65;;;;;;;8.51;100.00;99999.25;5045873;28;20476;-74
2023/12/11 13:18:49;;;;;;;5.85;0.77;;;;;;;8.53;100.00;100004.44;5043310;28;20047;-76
2023/12/11 13:21:15;;;;;;;2.17;1.58;;;;;;;8.47;100.00;100009.56;5043538;28;20108;-75
2023/12/11 13:23:40;;;;;;;3.83;0.73;;;;;;;8.56;100.00;100006.47;5047689;28;20048;-73
2023/12/11 13:26:06;;;;;;;4.65;0.90;;;;;;;8.56;100.00;100017.63;5044203;28;20052;-74
2023/12/11 13:28:31;;;;;;;0.82;0.77;;;;;;;8.64;100.00;100022.06;5043716;28;20068;-74
2023/12/11 13:30:57;;;;;;;3.83;0.63;;;;;;;8.65;100.00;100023.69;5046105;28;20484;-74
2023/12/11 13:33:22;;;;;;;2.95;0.70;;;;;;;8.62;100.00;100040.38;5039742;28;20431;-74
2023/12/11 13:35:49;;;;;;;6.40;0.80;;;;;;;8.42;100.00;100035.03;5047534;28;20425;-73
2023/12/11 13:38:15;;;;;;;3.67;0.68;;;;;;;8.58;100.00;100045.97;5044657;28;20106;-74
2023/12/11 13:40:41;;;;;;;4.78;0.90;;;;;;;8.50;100.00;100042.28;5045347;28;20071;-73
2023/12/11 13:43:06;;;;;;;4.38;0.93;;;;;;;8.49;100.00;100046.25;5042665;28;20040;-75
2023/12/11 13:45:31;;;;;;;5.40;0.95;;;;;;;8.51;100.00;100045.88;5044374;28;20025;-74
2023/12/11 13:47:57;;;;;;;5.75;1.02;;;;;;;8.38;100.00;100064.03;5041838;28;20057;-73
2023/12/11 13:50:22;;;;;;;3.53;0.88;;;;;;;8.26;100.00;100063.13;5040222;28;20021;-74
2023/12/11 13:52:48;;;;;;;4.03;0.75;;;;;;;8.40;100.00;100056.09;5042601;28;20504;-73
2023/12/11 13:55:13;;;;;;;3.15;0.80;;;;;;;8.28;100.00;100071.91;5042505;28;20341;-74
2023/12/11 13:57:39;;;;;;;1.77;0.65;;;;;;;8.32;100.00;100058.81;5044183;28;20104;-73
2023/12/11 14:00:06;;;;;;;3.28;0.80;;;;;;;8.26;100.00;100063.13;5042357;28;20036;-73
2023/12/11 14:02:31;;;;;;;3.22;1.27;;;;;;;8.23;100.00;100072.25;5040664;28;20725;-73
2023/12/11 14:04:57;;;;;;;7.57;1.58;;;;;;;8.08;100.00;100079.66;5040384;28;20030;-74
2023/12/11 14:07:22;;;;;;;2.83;0.75;;;;;;;8.21;100.00;100084.97;5040890;28;20454;-75
2023/12/11 14:09:47;;;;;;;2.38;0.77;;;;;;;9.12;100.00;100094.63;5045568;28;20031;-75
2023/12/11 14:12:13;;;;;;;2.55;0.65;;;;;;;8.98;100.00;100105.69;5038091;28;20051;-75
2023/12/11 14:14:38;;;;;;;7.20;1.02;;;;;;;8.79;100.00;100112.31;5037083;28;20139;-75
2023/12/11 14:17:05;;;;;;;5.82;0.88;;;;;;;8.39;100.00;100116.66;5042091;28;20081;-77
2023/12/11 14:19:31;;;;;;;5.45;0.80;;;;;;;8.49;100.00;100121.56;5037795;28;20130;-76
2023/12/11 14:21:56;;;;;;;0.85;0.50;;;;;;;8.61;100.00;100117.69;5047205;28;20598;-79
2023/12/11 14:24:21;;;;;;;2.25;0.43;;;;;;;8.53;100.00;100122.41;5038176;28;20064;-76
2023/12/11 14:26:47;;;;;;;3.45;0.77;;;;;;;8.57;100.00;100139.19;5041228;28;20072;-77
2023/12/11 14:29:12;;;;;;;2.10;0.88;;;;;;;8.41;100.00;100139.41;5042054;28;20029;-76
2023/12/11 14:31:37;;;;;;;3.85;0.75;;;;;;;8.47;100.00;100139.84;5040674;28;20025;-76
2023/12/11 14:34:03;;;;;;;6.15;0.80;;;;;;;8.49;100.00;100149.44;5038934;28;20028;-77
2023/12/11 14:36:28;;;;;;;1.65;0.30;;;;;;;8.52;100.00;100153.47;5042940;28;20032;-77
2023/12/11 14:38:54;;;;;;;5.30;0.52;;;;;;;8.49;100.00;100155.03;5043037;28;20029;-77
2023/12/11 14:41:19;;;;;;;3.40;0.65;;;;;;;8.37;100.00;100154.44;5043164;28;20040;-77
2023/12/11 14:43:44;;;;;;;1.65;0.40;;;;;;;8.25;100.00;100150.75;5041750;28;20185;-77
2023/12/11 14:46:10;;;;;;;3.08;0.70;;;;;;;8.27;100.00;100156.75;5037604;28;20049;-77
2023/12/11 14:48:38;;;;;;;2.70;0.75;;;;;;;8.28;100.00;100158.34;5041381;28;20515;-76
2023/12/11 14:51:04;;;;;;;0.52;0.32;;;;;;;8.58;100.00;100156.72;5036637;28;20139;-78
2023/12/11 14:53:29;;;;;;;1.17;0.55;;;;;;;8.54;100.00;100162.28;5039204;28;20552;-77
2023/12/11 14:55:55;;;;;;;8.05;1.05;;;;;;;9.18;100.00;100162.09;5045890;28;20092;-76
2023/12/11 14:58:20;;;;;;;4.03;1.60;;;;;;;8.41;100.00;100174.84;5046814;28;20119;-76
2023/12/11 15:00:46;;;;;;;6.68;1.00;;;;;;;8.37;100.00;100168.41;5043634;28;20033;-75
2023/12/11 15:03:11;;;;;;;3.70;0.60;;;;;;;8.22;100.00;100168.25;5042712;28;20507;-74
2023/12/11 15:05:37;;;;;;;4.07;0.45;;;;;;;8.21;100.00;100165.81;5040815;28;20112;-75
2023/12/11 15:08:02;;;;;;;2.25;0.70;;;;;;;8.17;100.00;100171.34;5042140;28;20124;-75
2023/12/11 15:10:27;;;;;;;1.08;0.50;;;;;;;8.11;100.00;100170.06;5044565;28;20025;-74
2023/12/11 15:12:53;;;;;;;2.08;0.80;;;;;;;8.19;100.00;100185.72;5038176;28;20025;-75
2023/12/11 15:15:20;;;;;;;3.08;0.85;;;;;;;8.12;100.00;100180.06;5041603;28;20063;-75
2023/12/11 15:17:45;;;;;;;4.97;0.82;;;;;;;8.07;100.00;100191.53;5035712;28;20041;-74
2023/12/11 15:20:11;;;;;;;2.95;1.13;;;;;;;8.07;100.00;100194.31;5037427;28;20435;-75
2023/12/11 15:22:37;;;;;;;4.15;1.17;;;;;;;8.05;100.00;100202.25;5043531;28;20021;-76
2023/12/11 15:25:03;;;;;;;2.45;0.85;;;;;;;8.04;100.00;100209.00;5036962;28;20135;-75
2023/12/11 15:27:29;;;;;;;2.70;0.93;;;;;;;8.07;100.00;100211.03;5039382;28;20112;-75
2023/12/11 15:29:54;;;;;;;1.60;0.98;;;;;;;8.09;100.00;100203.88;5035158;28;20124;-75
2023/12/11 15:32:20;;;;;;;7.00;1.35;;;;;;;7.97;100.00;100214.47;5037569;28;20024;-75
2023/12/11 15:34:45;;;;;;;2.20;0.70;;;;;;;7.90;100.00;100215.97;5041381;28;20029;-75
2023/12/11 15:37:11;;;;;;;4.03;1.10;;;;;;;8.02;100.00;100219.72;5041815;28;21623;-75
2023/12/11 15:39:36;;;;;;;3.20;0.90;;;;;;;7.96;100.00;100215.66;5040697;28;20086;-75
2023/12/11 15:42:01;;;;;;;0.80;0.65;;;;;;;8.01;100.00;100223.69;5039707;28;20388;-75
2023/12/11 15:44:27;;;;;;;4.50;0.80;;;;;;;8.07;100.00;100216.59;5039336;28;20394;-75
2023/12/11 15:46:52;;;;;;;2.33;1.17;;;;;;;7.92;100.00;100221.19;5040875;28;20041;-75
2023/12/11 15:49:20;;;;;;;5.60;1.20;;;;;;;7.94;100.00;100227.97;5039078;28;20039;-75
2023/12/11 15:51:51;;;;;;;2.83;0.95;;;;;;;8.00;100.00;100233.25;5040219;28;20056;-75
2023/12/11 15:54:17;;;;;;;3.78;1.08;;;;;;;8.00;100.00;100230.44;5039747;28;20041;-75
2023/12/11 15:56:43;;;;;;;3.63;1.00;;;;;;;7.87;100.00;100241.81;5039194;28;20032;-75
2023/12/11 15:59:08;;;;;;;6.57;1.25;;;;;;;7.93;100.00;100237.53;5036835;28;20040;-75
2023/12/11 16:01:33;;;;;;;7.55;2.33;;;;;;;7.98;100.00;100247.53;5042774;28;20041;-75
2023/12/11 16:03:59;;;;;;;4.28;1.20;;;;;;;8.00;100.00;100249.97;5039638;28;20116;-75
2023/12/11 16:06:28;;;;;;;3.10;1.00;;;;;;;7.93;100.00;100254.25;5033070;28;20017;-75
2023/12/11 16:08:53;;;;;;;4.55;1.70;;;;;;;7.88;100.00;100264.91;5037692;28;20116;-75
2023/12/11 16:11:20;;;;;;;3.25;0.90;;;;;;;7.84;100.00;100256.50;5041650;28;20139;-75
2023/12/11 16:13:46;;;;;;;4.80;0.95;;;;;;;7.90;100.00;100254.97;5040674;28;20241;-75
2023/12/11 16:16:12;;;;;;;4.30;1.33;;;;;;;7.73;100.00;100263.88;5036612;28;20041;-75
2023/12/11 16:18:44;;;;;;;4.45;1.20;;;;;;;7.90;100.00;100268.13;5044583;28;20115;-75
2023/12/11 16:21:09;;;;;;;2.53;0.63;;;;;;;7.89;100.00;100269.31;5050031;28;20564;-75
2023/12/11 16:23:36;;;;;;;3.60;0.82;;;;;;;7.74;100.00;100271.06;5047951;28;20048;-74
2023/12/11 16:26:01;;;;;;;7.05;1.67;;;;;;;7.69;100.00;100272.16;5037963;28;20091;-75
2023/12/11 16:28:27;;;;;;;6.07;1.77;;;;;;;7.56;100.00;100270.75;5053786;28;20056;-75
2023/12/11 16:30:53;;;;;;;6.68;1.17;;;;;;;7.64;100.00;100277.25;5042910;28;20120;-75
2023/12/11 16:33:18;;;;;;;7.20;1.20;;;;;;;7.56;100.00;100278.31;5040450;28;20039;-75
2023/12/11 16:35:43;;;;;;;2.58;0.90;;;;;;;7.58;100.00;100281.53;5045252;28;20025;-75
2023/12/11 16:38:09;;;;;;;8.18;1.92;;;;;;;7.70;100.00;100281.34;5045561;28;20056;-75
2023/12/11 16:40:34;;;;;;;10.05;2.70;;;;;;;7.63;100.00;100270.06;5039965;28;20374;-75
2023/12/11 16:42:59;;;;;;;4.18;0.95;;;;;;;7.57;100.00;100279.91;5045107;28;20512;-75
2023/12/11 16:45:26;;;;;;;5.55;2.15;;;;;;;7.55;100.00;100285.88;5048045;28;20059;-76
2023/12/11 16:47:53;;;;;;;4.28;1.50;;;;;;;7.43;100.00;100277.72;5040694;28;20037;-75
2023/12/11 16:50:25;;;;;;;4.75;1.42;;;;;;;7.37;100.00;100281.97;5035168;28;20092;-75
2023/12/11 16:52:50;;;;;;;1.80;1.10;;;;;;;7.32;100.00;100286.66;5038415;28;20393;-75
2023/12/11 16:55:16;;;;;;;6.03;1.50;;;;;;;7.41;100.00;100291.19;5042110;28;20025;-74
2023/12/11 16:57:42;;;;;;;4.05;1.33;;;;;;;7.27;100.00;100291.72;5039137;28;20036;-74
2023/12/11 17:00:12;;;;;;;5.60;2.13;;;;;;;7.24;100.00;100293.28;5044193;28;20028;-74
2023/12/11 17:02:38;;;;;;;4.18;2.90;;;;;;;7.32;100.00;100294.22;5046246;28;20024;-74
2023/12/11 17:05:04;;;;;;;3.65;1.65;;;;;;;7.31;100.00;100300.94;5047393;28;20029;-74
2023/12/11 17:07:32;;;;;;;5.22;1.40;;;;;;;7.35;100.00;100293.47;5040042;28;20456;-74
2023/12/11 17:09:58;;;;;;;3.00;2.17;;;;;;;7.38;100.00;100303.88;5044575;28;20033;-75